createdAt,value
2023-03-29T00:25:19.614Z,4.63
2023-03-29T00:27:46.943Z,4.45
2023-03-29T00:30:14.908Z,4.45
2023-03-29T00:32:42.704Z,3.63
2023-03-29T00:35:10.895Z,3.42
2023-03-29T00:37:38.239Z,5.23
2023-03-29T00:40:10.992Z,4.38
2023-03-29T00:42:38.316Z,4.00
2023-03-29T00:45:25.567Z,4.90
2023-03-29T00:47:59.947Z,4.90
2023-03-29T00:50:39.449Z,4.80
2023-03-29T00:53:14.716Z,4.38
2023-03-29T00:55:49.688Z,4.55
2023-03-29T00:58:22.837Z,3.75
2023-03-29T01:01:04.533Z,3.55
2023-03-29T01:03:37.819Z,3.63
2023-03-29T01:06:08.550Z,4.25
2023-03-29T01:08:43.616Z,3.47
2023-03-29T01:11:34.893Z,3.95
2023-03-29T01:14:03.871Z,4.95
2023-03-29T01:16:33.151Z,6.73
2023-03-29T01:19:02.207Z,4.63
2023-03-29T01:21:44.760Z,3.90
2023-03-29T01:24:33.879Z,4.55
2023-03-29T01:27:19.361Z,5.95
2023-03-29T01:29:54.016Z,3.07
2023-03-29T01:32:27.834Z,4.45
2023-03-29T01:35:01.596Z,4.93
2023-03-29T01:37:38.078Z,4.05
2023-03-29T01:40:06.306Z,5.45
2023-03-29T01:43:05.144Z,5.13
2023-03-29T01:46:01.153Z,7.00
2023-03-29T01:48:37.725Z,3.13
2023-03-29T01:51:14.443Z,7.40
2023-03-29T01:53:51.084Z,2.97
2023-03-29T01:56:22.908Z,5.63
2023-03-29T01:58:54.299Z,4.35
2023-03-29T02:01:29.915Z,6.10
2023-03-29T02:04:02.891Z,5.47
2023-03-29T02:06:34.642Z,3.83
2023-03-29T02:09:04.740Z,3.40
2023-03-29T02:11:32.142Z,6.07
2023-03-29T02:14:02.222Z,5.93
2023-03-29T02:16:37.834Z,3.67
2023-03-29T02:19:07.834Z,4.68
2023-03-29T02:21:44.227Z,5.13
2023-03-29T02:24:13.361Z,4.28
2023-03-29T02:26:40.716Z,5.97
2023-03-29T02:29:08.282Z,5.25
2023-03-29T02:31:56.788Z,4.28
2023-03-29T02:34:33.089Z,4.80
2023-03-29T02:37:03.808Z,3.83
2023-03-29T02:39:33.635Z,3.97
2023-03-29T02:42:02.832Z,5.00
2023-03-29T02:44:33.207Z,4.43
2023-03-29T02:47:23.261Z,3.43
2023-03-29T02:49:50.994Z,6.85
2023-03-29T02:52:23.681Z,7.63
2023-03-29T02:54:54.401Z,5.72
2023-03-29T02:57:28.669Z,5.30
2023-03-29T02:59:58.081Z,3.80
2023-03-29T03:02:29.650Z,4.22
2023-03-29T03:04:57.668Z,4.45
2023-03-29T03:07:24.961Z,6.82
2023-03-29T03:09:52.654Z,7.72
2023-03-29T03:12:19.928Z,5.17
2023-03-29T03:14:47.246Z,7.30
2023-03-29T03:17:14.537Z,5.22
2023-03-29T03:19:42.088Z,4.80
2023-03-29T03:22:11.550Z,7.93
2023-03-29T03:24:38.783Z,4.57
2023-03-29T03:27:06.262Z,6.10
2023-03-29T03:29:33.515Z,8.88
2023-03-29T03:32:09.857Z,7.32
2023-03-29T03:34:54.867Z,6.82
2023-03-29T03:37:25.186Z,12.07
2023-03-29T03:39:52.505Z,3.83
2023-03-29T03:42:20.738Z,7.32
2023-03-29T03:44:49.761Z,6.32
2023-03-29T03:47:37.786Z,7.20
2023-03-29T03:50:19.304Z,6.27
2023-03-29T03:52:46.944Z,8.00
2023-03-29T03:55:14.658Z,8.38
2023-03-29T03:58:02.199Z,9.75
2023-03-29T04:00:29.614Z,6.18
2023-03-29T04:03:14.069Z,6.57
2023-03-29T04:05:43.423Z,6.72
2023-03-29T04:08:12.952Z,7.75
2023-03-29T04:10:59.693Z,9.45
2023-03-29T04:13:34.322Z,8.02
2023-03-29T04:16:21.826Z,6.67
2023-03-29T04:18:49.818Z,7.53
2023-03-29T04:21:18.326Z,5.70
2023-03-29T04:23:48.006Z,4.07
2023-03-29T04:26:17.669Z,7.47
2023-03-29T04:28:57.057Z,5.37
2023-03-29T04:31:34.237Z,6.47
2023-03-29T04:34:20.685Z,7.93
2023-03-29T04:36:50.308Z,6.03
2023-03-29T04:39:21.734Z,6.15
2023-03-29T04:41:54.286Z,8.53
2023-03-29T04:44:26.725Z,6.20
2023-03-29T04:46:54.211Z,4.30
2023-03-29T04:49:47.668Z,5.25
2023-03-29T04:52:24.477Z,3.58
2023-03-29T04:54:52.604Z,4.80
2023-03-29T04:57:39.726Z,7.93
2023-03-29T05:00:31.561Z,7.47
2023-03-29T05:03:17.224Z,7.05
2023-03-29T05:05:53.933Z,8.02
2023-03-29T05:08:21.661Z,8.93
2023-03-29T05:11:25.391Z,6.10
2023-03-29T05:13:55.526Z,7.40
2023-03-29T05:16:24.405Z,8.10
2023-03-29T05:18:52.142Z,6.28
2023-03-29T05:21:20.557Z,5.77
2023-03-29T05:23:47.941Z,7.82
2023-03-29T05:26:17.990Z,6.20
2023-03-29T05:28:50.717Z,6.95
2023-03-29T05:31:18.571Z,7.72
2023-03-29T05:33:49.671Z,7.70
2023-03-29T05:36:19.081Z,7.53
2023-03-29T05:38:49.917Z,6.75
2023-03-29T05:41:18.784Z,7.97
2023-03-29T05:44:06.594Z,6.38
2023-03-29T05:46:34.195Z,7.50
2023-03-29T05:49:04.184Z,5.32
2023-03-29T05:51:52.268Z,7.32
2023-03-29T05:54:19.458Z,6.68
2023-03-29T05:56:46.737Z,9.30
2023-03-29T05:59:15.303Z,8.50
2023-03-29T06:01:46.925Z,7.22
2023-03-29T06:04:15.787Z,9.57
2023-03-29T06:06:53.199Z,8.52
2023-03-29T06:09:20.491Z,8.75
2023-03-29T06:11:57.472Z,11.70
2023-03-29T06:14:32.561Z,6.75
2023-03-29T06:17:10.708Z,7.85
2023-03-29T06:19:38.152Z,5.88
2023-03-29T06:22:05.690Z,6.10
2023-03-29T06:24:34.672Z,6.37
2023-03-29T06:27:07.771Z,9.30
2023-03-29T06:29:35.791Z,8.18
2023-03-29T06:32:03.269Z,9.20
2023-03-29T06:34:47.594Z,7.95
2023-03-29T06:37:32.562Z,8.67
2023-03-29T06:40:13.209Z,8.50
2023-03-29T06:42:43.447Z,10.05
2023-03-29T06:45:49.154Z,10.25
2023-03-29T06:48:26.758Z,7.03
2023-03-29T06:50:54.575Z,10.20
2023-03-29T06:53:26.274Z,9.90
2023-03-29T06:55:59.627Z,9.07
2023-03-29T06:58:40.731Z,8.05
2023-03-29T07:01:29.040Z,8.65
2023-03-29T07:04:08.120Z,11.80
2023-03-29T07:06:51.153Z,10.00
2023-03-29T07:09:19.596Z,9.57
2023-03-29T07:12:26.399Z,9.30
2023-03-29T07:14:58.456Z,7.55
2023-03-29T07:17:36.968Z,10.60
2023-03-29T07:20:08.770Z,7.82
2023-03-29T07:22:47.176Z,9.60
2023-03-29T07:25:17.162Z,9.07
2023-03-29T07:27:45.675Z,8.30
2023-03-29T07:30:16.903Z,10.27
2023-03-29T07:32:46.461Z,8.35
2023-03-29T07:35:28.485Z,9.93
2023-03-29T07:37:56.239Z,10.43
2023-03-29T07:40:26.035Z,11.30
2023-03-29T07:42:57.166Z,9.27
2023-03-29T07:45:29.053Z,8.65
2023-03-29T07:48:01.166Z,11.10
2023-03-29T07:50:39.625Z,11.93
2023-03-29T07:53:09.091Z,11.98
2023-03-29T07:55:36.553Z,11.93
2023-03-29T07:58:17.515Z,12.18
2023-03-29T08:00:44.797Z,12.45
2023-03-29T08:03:32.168Z,12.88
2023-03-29T08:06:02.961Z,14.15
2023-03-29T08:08:30.414Z,12.17
2023-03-29T08:11:02.805Z,10.75
2023-03-29T08:13:38.905Z,12.20
2023-03-29T08:16:24.797Z,8.25
2023-03-29T08:18:59.895Z,9.98
2023-03-29T08:21:41.349Z,12.50
2023-03-29T08:24:09.276Z,12.82
2023-03-29T08:26:43.390Z,16.75
2023-03-29T08:29:11.857Z,11.85
2023-03-29T08:31:39.171Z,13.43
2023-03-29T08:34:06.968Z,16.23
2023-03-29T08:36:49.375Z,14.18
2023-03-29T08:39:29.956Z,13.90
2023-03-29T08:42:34.825Z,16.15
2023-03-29T08:45:27.405Z,15.52
2023-03-29T08:48:18.590Z,15.13
2023-03-29T08:50:52.516Z,14.25
2023-03-29T08:53:37.979Z,14.65
2023-03-29T08:56:25.165Z,15.52
2023-03-29T08:59:20.344Z,19.00
2023-03-29T09:01:51.504Z,12.60
2023-03-29T09:04:27.429Z,19.02
2023-03-29T09:07:21.228Z,17.02
2023-03-29T09:09:48.639Z,17.55
2023-03-29T09:12:56.780Z,19.35
2023-03-29T09:16:03.571Z,18.13
2023-03-29T09:18:38.401Z,16.52
2023-03-29T09:21:30.186Z,16.63
2023-03-29T09:24:28.803Z,16.13
2023-03-29T09:27:10.677Z,16.75
2023-03-29T09:30:00.617Z,14.57
2023-03-29T09:32:53.799Z,19.17
2023-03-29T09:35:34.385Z,15.25
2023-03-29T09:38:04.331Z,15.27
2023-03-29T09:40:39.737Z,16.15
2023-03-29T09:43:18.363Z,18.20
2023-03-29T09:45:53.059Z,17.13
2023-03-29T09:48:21.441Z,16.00
2023-03-29T09:50:57.492Z,18.40
2023-03-29T09:53:24.916Z,18.13
2023-03-29T09:56:01.948Z,19.30
2023-03-29T09:58:51.323Z,19.90
2023-03-29T10:01:20.210Z,18.67
2023-03-29T10:03:53.870Z,18.65
2023-03-29T10:06:25.405Z,13.88
2023-03-29T10:08:58.910Z,17.77
2023-03-29T10:11:35.538Z,20.75
2023-03-29T10:14:12.620Z,16.40
2023-03-29T10:16:42.449Z,21.27
2023-03-29T10:19:22.430Z,20.40
2023-03-29T10:21:52.835Z,19.83
2023-03-29T10:24:22.130Z,20.67
2023-03-29T10:26:55.485Z,21.13
2023-03-29T10:29:27.694Z,21.05
2023-03-29T10:31:55.246Z,26.02
2023-03-29T10:34:26.012Z,23.40
2023-03-29T10:37:01.989Z,20.90
2023-03-29T10:39:34.352Z,22.63
2023-03-29T10:42:04.159Z,25.92
2023-03-29T10:44:34.207Z,19.65
2023-03-29T10:47:16.772Z,25.87
2023-03-29T10:49:57.146Z,23.92
2023-03-29T10:52:25.720Z,25.27
2023-03-29T10:54:55.311Z,25.30
2023-03-29T10:57:42.966Z,29.23
2023-03-29T11:00:21.937Z,27.37
2023-03-29T11:03:07.949Z,29.63
2023-03-29T11:05:42.532Z,28.15
2023-03-29T11:08:20.716Z,23.20
2023-03-29T11:11:17.684Z,23.60
2023-03-29T11:14:26.132Z,22.07
2023-03-29T11:17:25.300Z,19.67
2023-03-29T11:20:19.453Z,21.77
2023-03-29T11:22:55.283Z,21.33
2023-03-29T11:25:22.598Z,20.88
2023-03-29T11:28:10.401Z,20.83
2023-03-29T11:30:47.535Z,22.45
2023-03-29T11:33:33.562Z,15.55
2023-03-29T11:36:38.956Z,20.30
2023-03-29T11:39:31.535Z,17.52
2023-03-29T11:42:20.130Z,19.97
2023-03-29T11:44:51.616Z,18.25
2023-03-29T11:47:27.561Z,20.05
2023-03-29T11:50:03.347Z,20.80
2023-03-29T11:52:36.652Z,20.77
2023-03-29T11:55:12.193Z,22.70
2023-03-29T11:57:56.839Z,20.05
2023-03-29T12:00:40.438Z,16.23
2023-03-29T12:03:41.879Z,19.65
2023-03-29T12:06:20.265Z,19.95
2023-03-29T12:09:24.021Z,19.70
2023-03-29T12:12:02.942Z,18.20
2023-03-29T12:15:07.330Z,16.70
2023-03-29T12:17:41.884Z,15.20
2023-03-29T12:20:31.615Z,15.27
2023-03-29T12:23:01.148Z,12.10
2023-03-29T12:25:40.328Z,13.18
2023-03-29T12:28:15.004Z,13.85
2023-03-29T12:30:57.660Z,14.13
2023-03-29T12:33:39.027Z,18.70
2023-03-29T12:36:53.843Z,18.47
2023-03-29T12:39:44.207Z,12.63
2023-03-29T12:42:31.650Z,22.20
2023-03-29T12:45:21.987Z,20.65
2023-03-29T12:47:51.360Z,20.70
2023-03-29T12:50:34.467Z,20.67
2023-03-29T12:53:18.123Z,21.13
2023-03-29T12:56:11.650Z,22.13
2023-03-29T12:58:39.118Z,22.17
2023-03-29T13:01:06.734Z,24.40
2023-03-29T13:03:39.987Z,20.23
2023-03-29T13:06:11.039Z,15.00
2023-03-29T13:08:45.592Z,17.98
2023-03-29T13:11:34.469Z,15.43
2023-03-29T13:14:09.241Z,18.38
2023-03-29T13:16:36.933Z,18.03
2023-03-29T13:19:18.646Z,20.00
2023-03-29T13:21:59.770Z,14.45
2023-03-29T13:25:02.198Z,14.38
2023-03-29T13:27:44.387Z,15.57
2023-03-29T13:30:41.044Z,14.93
2023-03-29T13:33:17.368Z,15.68
2023-03-29T13:35:53.875Z,17.55
2023-03-29T13:38:23.008Z,17.77
2023-03-29T13:40:53.110Z,18.77
2023-03-29T13:43:30.858Z,15.97
2023-03-29T13:45:58.078Z,20.08
2023-03-29T13:48:27.231Z,16.10
2023-03-29T13:51:07.813Z,20.10
2023-03-29T13:53:58.020Z,16.67
2023-03-29T13:56:34.382Z,18.77
2023-03-29T13:59:19.642Z,20.63
2023-03-29T14:01:53.398Z,19.80
2023-03-29T14:04:41.864Z,18.02
2023-03-29T14:07:13.713Z,22.20
2023-03-29T14:09:45.156Z,21.80
2023-03-29T14:12:14.623Z,15.90
2023-03-29T14:14:57.753Z,22.58
2023-03-29T14:17:26.987Z,21.40
2023-03-29T14:19:58.514Z,20.42
2023-03-29T14:22:31.173Z,18.90
2023-03-29T14:25:05.682Z,19.48
2023-03-29T14:27:37.025Z,20.80
2023-03-29T14:30:35.686Z,20.75
2023-03-29T14:33:05.093Z,15.95
2023-03-29T14:35:33.297Z,21.20
2023-03-29T14:38:01.574Z,21.00
2023-03-29T14:40:30.822Z,24.33
2023-03-29T14:43:00.564Z,18.50
2023-03-29T14:45:27.940Z,21.05
2023-03-29T14:47:55.676Z,16.87
2023-03-29T14:50:29.247Z,19.75
2023-03-29T14:53:01.441Z,18.73
2023-03-29T14:55:28.910Z,18.40
2023-03-29T14:57:56.413Z,19.83
2023-03-29T15:00:39.068Z,19.80
2023-03-29T15:03:14.530Z,17.95
2023-03-29T15:05:53.236Z,19.95
2023-03-29T15:08:37.655Z,17.45
2023-03-29T15:11:27.288Z,15.48
2023-03-29T15:14:15.857Z,17.00
2023-03-29T15:16:46.863Z,19.02
2023-03-29T15:19:20.685Z,18.65
2023-03-29T15:21:50.059Z,17.70
2023-03-29T15:24:20.210Z,17.60
2023-03-29T15:27:11.105Z,17.80
2023-03-29T15:29:45.279Z,14.93
2023-03-29T15:32:37.104Z,14.88
2023-03-29T15:35:20.158Z,16.77
2023-03-29T15:37:47.558Z,16.70
2023-03-29T15:40:22.347Z,16.83
2023-03-29T15:42:50.299Z,16.48
2023-03-29T15:45:18.628Z,21.20
2023-03-29T15:47:46.617Z,13.75
2023-03-29T15:50:15.584Z,15.60
2023-03-29T15:52:42.864Z,15.53
2023-03-29T15:55:10.503Z,17.17
2023-03-29T15:57:38.093Z,19.30
2023-03-29T16:00:07.925Z,17.95
2023-03-29T16:02:40.172Z,18.73
2023-03-29T16:05:09.152Z,20.63
2023-03-29T16:07:36.787Z,16.58
2023-03-29T16:10:04.292Z,17.85
2023-03-29T16:12:31.555Z,18.33
2023-03-29T16:14:58.692Z,20.48
2023-03-29T16:17:26.037Z,18.73
2023-03-29T16:19:53.297Z,20.50
2023-03-29T16:22:20.505Z,21.73
2023-03-29T16:24:47.718Z,18.60
2023-03-29T16:27:14.901Z,20.23
2023-03-29T16:29:42.205Z,18.77
2023-03-29T16:32:11.025Z,23.75
2023-03-29T16:34:38.790Z,20.67
2023-03-29T16:37:06.313Z,20.13
2023-03-29T16:39:33.582Z,25.90
2023-03-29T16:42:00.933Z,18.83
2023-03-29T16:44:28.177Z,18.55
2023-03-29T16:46:57.861Z,19.35
2023-03-29T16:49:25.147Z,18.58
2023-03-29T16:51:53.373Z,14.65
2023-03-29T16:54:20.680Z,18.03
2023-03-29T16:56:48.169Z,14.98
2023-03-29T16:59:15.551Z,15.80
2023-03-29T17:01:42.993Z,16.23
2023-03-29T17:04:10.494Z,16.30
2023-03-29T17:06:37.997Z,13.03
2023-03-29T17:09:06.035Z,17.02
2023-03-29T17:11:34.478Z,11.05
2023-03-29T17:14:01.802Z,15.90
2023-03-29T17:16:29.323Z,13.55
2023-03-29T17:19:00.104Z,12.10
2023-03-29T17:21:28.836Z,17.42
2023-03-29T17:23:58.550Z,11.60
2023-03-29T17:26:26.122Z,14.15
2023-03-29T17:28:53.357Z,10.35
2023-03-29T17:31:20.613Z,11.33
2023-03-29T17:33:50.426Z,7.70
2023-03-29T17:36:19.148Z,8.98
2023-03-29T17:38:48.826Z,12.45
2023-03-29T17:41:16.551Z,9.50
2023-03-29T17:43:43.746Z,8.80
2023-03-29T17:46:11.485Z,9.63
2023-03-29T17:48:39.150Z,9.70
2023-03-29T17:51:06.684Z,9.65
2023-03-29T17:53:33.904Z,10.27
2023-03-29T17:56:01.229Z,9.60
2023-03-29T17:58:28.828Z,9.27
2023-03-29T18:00:56.138Z,7.82
2023-03-29T18:03:23.495Z,6.50
2023-03-29T18:05:51.094Z,8.38
2023-03-29T18:08:18.890Z,7.53
2023-03-29T18:10:46.392Z,5.63
2023-03-29T18:13:14.629Z,9.90
2023-03-29T18:15:42.395Z,9.30
2023-03-29T18:18:09.707Z,5.53
2023-03-29T18:20:37.177Z,7.47
2023-03-29T18:23:04.332Z,7.07
2023-03-29T18:25:31.540Z,9.48
2023-03-29T18:27:58.796Z,8.13
2023-03-29T18:30:26.149Z,6.07
2023-03-29T18:32:53.414Z,8.33
2023-03-29T18:35:20.915Z,6.60
2023-03-29T18:37:48.298Z,7.63
2023-03-29T18:40:19.654Z,7.20
2023-03-29T18:42:46.831Z,10.40
2023-03-29T18:45:14.107Z,9.67
2023-03-29T18:47:41.358Z,6.82
2023-03-29T18:50:09.302Z,8.70
2023-03-29T18:52:36.542Z,8.13
2023-03-29T18:55:05.092Z,7.28
2023-03-29T18:57:32.425Z,6.80
2023-03-29T19:00:00.015Z,7.88
2023-03-29T19:02:27.304Z,7.60
2023-03-29T19:04:54.655Z,7.78
2023-03-29T19:07:22.547Z,7.00
2023-03-29T19:09:49.889Z,9.70
2023-03-29T19:12:17.289Z,7.32
2023-03-29T19:14:44.545Z,8.23
2023-03-29T19:17:11.902Z,9.55
2023-03-29T19:19:39.402Z,6.65
2023-03-29T19:22:06.850Z,7.17
2023-03-29T19:24:34.028Z,7.25
2023-03-29T19:27:01.733Z,8.90
2023-03-29T19:29:29.163Z,9.48
2023-03-29T19:31:57.112Z,5.30
2023-03-29T19:34:24.729Z,7.60
2023-03-29T19:36:53.809Z,8.05
2023-03-29T19:39:21.653Z,9.38
2023-03-29T19:41:48.893Z,7.75
2023-03-29T19:44:16.115Z,8.85
2023-03-29T19:46:43.367Z,12.33
2023-03-29T19:49:13.454Z,9.93
2023-03-29T19:51:41.930Z,9.05
2023-03-29T19:54:11.290Z,8.32
2023-03-29T19:56:38.715Z,11.93
2023-03-29T19:59:06.170Z,10.03
2023-03-29T20:01:33.843Z,11.73
2023-03-29T20:04:02.437Z,9.40
2023-03-29T20:06:29.700Z,9.75
2023-03-29T20:08:57.643Z,9.35
2023-03-29T20:11:25.083Z,8.63
2023-03-29T20:13:52.423Z,11.55
2023-03-29T20:16:19.753Z,9.05
2023-03-29T20:18:46.915Z,9.82
2023-03-29T20:21:16.658Z,9.80
2023-03-29T20:23:44.655Z,11.23
2023-03-29T20:26:12.033Z,13.40
2023-03-29T20:28:39.387Z,9.00
2023-03-29T20:31:10.721Z,9.65
2023-03-29T20:33:39.179Z,8.38
2023-03-29T20:36:06.971Z,8.43
2023-03-29T20:38:35.320Z,11.30
2023-03-29T20:41:04.183Z,12.60
2023-03-29T20:43:37.421Z,10.25
2023-03-29T20:46:14.244Z,6.28
2023-03-29T20:48:54.131Z,7.80
2023-03-29T20:51:28.016Z,9.38
2023-03-29T20:54:02.115Z,11.98
2023-03-29T20:56:34.912Z,8.05
2023-03-29T20:59:03.939Z,8.30
2023-03-29T21:01:31.707Z,8.80
2023-03-29T21:03:59.161Z,7.78
2023-03-29T21:06:26.768Z,9.40
2023-03-29T21:08:54.013Z,10.00
2023-03-29T21:11:21.231Z,11.20
2023-03-29T21:13:48.493Z,8.67
2023-03-29T21:16:15.812Z,7.90
2023-03-29T21:18:43.679Z,12.23
2023-03-29T21:21:11.836Z,10.40
2023-03-29T21:23:39.456Z,8.07
2023-03-29T21:26:07.907Z,11.77
2023-03-29T21:28:35.714Z,10.50
2023-03-29T21:31:07.179Z,8.75
2023-03-29T21:33:35.473Z,9.07
2023-03-29T21:36:02.855Z,12.25
2023-03-29T21:38:30.649Z,8.33
2023-03-29T21:40:58.214Z,9.88
2023-03-29T21:43:25.725Z,9.65
2023-03-29T21:45:52.943Z,9.50
2023-03-29T21:48:20.309Z,8.80
2023-03-29T21:50:50.977Z,9.77
2023-03-29T21:53:18.449Z,9.65
2023-03-29T21:55:48.872Z,9.27
2023-03-29T21:58:16.337Z,8.15
2023-03-29T22:00:44.517Z,8.70
2023-03-29T22:03:12.217Z,9.80
2023-03-29T22:05:39.680Z,7.88
2023-03-29T22:08:10.275Z,10.35
2023-03-29T22:10:41.183Z,9.38
2023-03-29T22:13:09.188Z,10.48
2023-03-29T22:15:36.445Z,8.27
2023-03-29T22:18:05.149Z,9.60
2023-03-29T22:20:34.064Z,8.45
2023-03-29T22:23:01.371Z,10.10
2023-03-29T22:25:28.581Z,6.40
2023-03-29T22:27:58.313Z,8.30
2023-03-29T22:30:25.764Z,9.90
2023-03-29T22:32:53.036Z,8.88
2023-03-29T22:35:20.660Z,7.40
2023-03-29T22:37:47.870Z,7.65
2023-03-29T22:40:15.446Z,9.90
2023-03-29T22:42:42.609Z,9.13
2023-03-29T22:45:10.411Z,8.48
2023-03-29T22:47:37.717Z,9.27
2023-03-29T22:50:07.220Z,7.88
2023-03-29T22:52:34.576Z,8.67
2023-03-29T22:55:01.940Z,11.38
2023-03-29T22:57:29.289Z,7.75
2023-03-29T22:59:56.524Z,5.55
2023-03-29T23:02:24.036Z,7.45
2023-03-29T23:04:51.296Z,10.13
2023-03-29T23:07:18.605Z,9.13
2023-03-29T23:09:46.087Z,8.90
2023-03-29T23:12:13.338Z,7.85
2023-03-29T23:14:42.744Z,7.72
2023-03-29T23:17:10.347Z,9.20
2023-03-29T23:19:38.050Z,12.68
2023-03-29T23:22:05.340Z,11.88
2023-03-29T23:24:32.623Z,10.43
2023-03-29T23:27:01.128Z,8.80
2023-03-29T23:29:28.521Z,8.50
2023-03-29T23:31:56.869Z,10.40
2023-03-29T23:34:24.229Z,7.85
2023-03-29T23:36:51.472Z,7.35
2023-03-29T23:39:18.714Z,6.50
2023-03-29T23:41:45.895Z,5.87
2023-03-29T23:44:13.379Z,7.18
2023-03-29T23:46:41.905Z,10.15
2023-03-29T23:49:09.954Z,6.07
2023-03-29T23:51:39.056Z,6.50
2023-03-29T23:54:06.582Z,6.83
2023-03-29T23:56:34.135Z,8.13
2023-03-29T23:59:01.491Z,7.05
